Time;durP1;ratioP1;P1;durP2;ratioP2;P2;SDS_P1;SDS_P2;PMS_P1;PMS_P2;Temp;Humidity;BMP_temperature;BMP_pressure;BME280_temperature;BME280_humidity;BME280_pressure;Samples;Min_cycle;Max_cycle;Signal;HPM_P1;HPM_P2
2021/04/28 00:00:45;;;;;;;33.72;24.63;;;307.40;1945.60;;;;;;4997995;28;20018;-71
2021/04/28 00:03:11;;;;;;;36.40;25.75;;;307.40;1971.20;;;;;;4997239;28;20022;-71
2021/04/28 00:05:38;;;;;;;30.77;24.23;;;307.40;1945.60;;;;;;4997509;28;20392;-70
2021/04/28 00:08:05;;;;;;;30.00;23.55;;;307.40;1945.60;;;;;;4997584;28;20097;-70
2021/04/28 00:10:35;;;;;;;32.38;22.85;;;307.40;1945.60;;;;;;4997409;28;20469;-70
2021/04/28 00:13:01;;;;;;;29.45;22.17;;;307.40;1945.60;;;;;;4997338;28;20178;-70
2021/04/28 00:15:29;;;;;;;28.88;20.35;;;307.40;1945.60;;;;;;4997070;28;20081;-70
2021/04/28 00:17:55;;;;;;;28.90;22.35;;;307.40;1945.60;;;;;;4996894;28;20503;-70
2021/04/28 00:20:22;;;;;;;31.10;21.95;;;307.40;1945.60;;;;;;4996500;28;20033;-71
2021/04/28 00:22:48;;;;;;;29.50;21.60;;;307.40;1945.60;;;;;;4997286;28;20094;-72
2021/04/28 00:25:17;;;;;;;27.90;21.48;;;307.40;1971.20;;;;;;4996937;28;20069;-73
2021/04/28 00:27:43;;;;;;;27.33;20.40;;;307.40;1971.20;;;;;;4979532;28;20057;-74
2021/04/28 00:30:11;;;;;;;24.88;20.88;;;307.40;1971.20;;;;;;4996121;28;20408;-73
2021/04/28 00:32:37;;;;;;;27.20;21.42;;;307.30;1971.20;;;;;;4996909;28;20092;-73
2021/04/28 00:35:06;;;;;;;31.20;22.48;;;307.40;1971.20;;;;;;4979408;28;20117;-72
2021/04/28 00:37:32;;;;;;;30.70;22.02;;;307.40;1971.20;;;;;;4979738;28;20025;-73
2021/04/28 00:39:58;;;;;;;28.00;21.33;;;307.40;1971.20;;;;;;4996807;28;20380;-74
2021/04/28 00:42:24;;;;;;;28.77;21.48;;;307.40;1971.20;;;;;;4996879;28;20026;-73
2021/04/28 00:44:49;;;;;;;29.10;22.02;;;307.40;1971.20;;;;;;4997013;28;20034;-74
2021/04/28 00:47:15;;;;;;;27.42;21.88;;;307.30;1971.20;;;;;;4995875;28;20432;-75
2021/04/28 00:49:41;;;;;;;28.42;21.83;;;307.30;1971.20;;;;;;4996649;28;20061;-73
2021/04/28 00:52:08;;;;;;;25.63;20.00;;;307.40;1971.20;;;;;;4996739;28;20031;-74
2021/04/28 00:54:35;;;;;;;30.00;21.50;;;307.30;1971.20;;;;;;4996706;28;20429;-74
2021/04/28 00:57:12;;;;;;;28.20;21.00;;;307.40;1971.20;;;;;;4996416;28;20026;-74
2021/04/28 00:59:38;;;;;;;27.92;21.60;;;307.30;1971.20;;;;;;4996081;28;20511;-73
2021/04/28 01:02:03;;;;;;;29.92;21.60;;;307.40;1971.20;;;;;;4979002;28;20388;-74
2021/04/28 01:04:29;;;;;;;32.85;21.98;;;307.30;1971.20;;;;;;4996124;28;20102;-75
2021/04/28 01:06:56;;;;;;;29.80;22.27;;;307.30;1971.20;;;;;;4996682;28;20092;-77
2021/04/28 01:09:23;;;;;;;27.42;20.98;;;307.30;1971.20;;;;;;4996127;28;20034;-74
2021/04/28 01:11:50;;;;;;;29.05;21.55;;;307.30;1971.20;;;;;;4996559;28;20049;-75
2021/04/28 01:14:16;;;;;;;27.10;20.88;;;307.30;1971.20;;;;;;4996442;28;20023;-75
2021/04/28 01:16:41;;;;;;;25.40;20.17;;;307.30;1971.20;;;;;;4996333;28;20392;-75
2021/04/28 01:19:07;;;;;;;29.08;22.13;;;307.30;1971.20;;;;;;4995866;28;20027;-74
2021/04/28 01:21:33;;;;;;;30.80;23.20;;;307.30;1971.20;;;;;;4995984;28;20102;-77
2021/04/28 01:23:59;;;;;;;31.85;23.52;;;307.20;1971.20;;;;;;4995795;28;20026;-73
2021/04/28 01:26:29;;;;;;;33.80;24.42;;;307.30;1971.20;;;;;;4995934;28;20026;-73
2021/04/28 01:28:58;;;;;;;33.47;25.02;;;307.30;1971.20;;;;;;4995878;28;20030;-73
2021/04/28 01:31:26;;;;;;;29.70;23.20;;;307.30;1971.20;;;;;;4995603;28;20053;-74
2021/04/28 01:33:57;;;;;;;32.42;23.27;;;307.20;1971.20;;;;;;4995918;28;20468;-73
2021/04/28 01:36:27;;;;;;;35.28;26.08;;;307.20;1971.20;;;;;;4995728;28;20036;-73
2021/04/28 01:38:55;;;;;;;34.47;24.85;;;307.20;1971.20;;;;;;4995388;28;20026;-73
2021/04/28 01:41:21;;;;;;;36.10;25.20;;;307.30;1971.20;;;;;;4995843;28;20050;-74
2021/04/28 01:43:48;;;;;;;31.70;24.45;;;307.30;1971.20;;;;;;4978151;28;20058;-74
2021/04/28 01:46:15;;;;;;;30.48;23.80;;;307.30;1996.80;;;;;;4995073;28;20097;-74
2021/04/28 01:48:44;;;;;;;30.88;23.55;;;307.20;1996.80;;;;;;4995611;28;20026;-74
2021/04/28 01:51:13;;;;;;;29.65;23.08;;;307.20;1996.80;;;;;;4995317;28;20026;-74
2021/04/28 01:53:39;;;;;;;31.45;23.75;;;307.20;1996.80;;;;;;4995484;28;20479;-77
2021/04/28 01:56:05;;;;;;;30.70;23.08;;;307.20;1996.80;;;;;;4995639;28;20027;-78
2021/04/28 01:58:31;;;;;;;30.10;23.42;;;307.20;1996.80;;;;;;4995456;28;20487;-78
2021/04/28 02:00:58;;;;;;;32.05;23.00;;;307.20;1996.80;;;;;;4994971;28;20034;-74
2021/04/28 02:03:26;;;;;;;31.90;24.63;;;307.20;1996.80;;;;;;4995132;28;20538;-75
2021/04/28 02:05:53;;;;;;;31.70;23.25;;;307.20;1996.80;;;;;;4978044;28;20041;-75
2021/04/28 02:08:19;;;;;;;34.08;27.35;;;307.30;1996.80;;;;;;4995445;28;20427;-75
2021/04/28 02:10:46;;;;;;;40.53;29.80;;;307.30;1996.80;;;;;;4995053;28;20026;-74
2021/04/28 02:13:14;;;;;;;41.45;30.00;;;307.20;1996.80;;;;;;4977334;28;20030;-73
2021/04/28 02:15:41;;;;;;;41.70;32.35;;;307.20;1996.80;;;;;;4995122;28;20030;-74
2021/04/28 02:18:08;;;;;;;36.45;29.35;;;307.20;1996.80;;;;;;4994930;28;20038;-74
2021/04/28 02:20:35;;;;;;;37.45;29.23;;;307.20;1996.80;;;;;;4994859;28;20026;-73
2021/04/28 02:23:03;;;;;;;40.95;29.50;;;307.20;1996.80;;;;;;4995176;28;20026;-74
2021/04/28 02:25:29;;;;;;;36.13;28.52;;;307.20;1996.80;;;;;;4995071;28;20030;-76
2021/04/28 02:27:55;;;;;;;31.33;25.65;;;307.20;1996.80;;;;;;4994955;28;20122;-75
2021/04/28 02:30:26;;;;;;;34.58;25.67;;;307.20;1996.80;;;;;;4995082;28;20050;-76
2021/04/28 02:32:53;;;;;;;33.35;25.90;;;307.20;1996.80;;;;;;4994792;28;20034;-74
2021/04/28 02:35:21;;;;;;;35.30;24.58;;;307.20;2022.40;;;;;;4994937;28;20031;-75
2021/04/28 02:37:51;;;;;;;30.75;22.90;;;307.20;1996.80;;;;;;4994648;28;20105;-76
2021/04/28 02:40:17;;;;;;;29.65;22.95;;;307.20;1996.80;;;;;;4995014;28;20407;-73
2021/04/28 02:42:47;;;;;;;28.63;22.48;;;307.20;1996.80;;;;;;4994412;28;20037;-75
2021/04/28 02:45:18;;;;;;;30.95;22.50;;;307.20;1996.80;;;;;;4976859;28;20058;-78
2021/04/28 02:47:45;;;;;;;30.27;20.85;;;307.20;1996.80;;;;;;4994383;28;20046;-78
2021/04/28 02:50:22;;;;;;;27.90;22.95;;;307.20;1996.80;;;;;;4994509;28;20027;-74
2021/04/28 02:52:50;;;;;;;29.40;22.10;;;307.20;1996.80;;;;;;4992533;28;20030;-75
2021/04/28 02:55:17;;;;;;;27.55;21.90;;;307.20;1996.80;;;;;;4994437;28;20105;-76
2021/04/28 02:57:45;;;;;;;26.85;21.17;;;307.20;1996.80;;;;;;4994406;28;20033;-76
2021/04/28 03:00:12;;;;;;;27.52;20.65;;;307.20;1971.20;;;;;;4994113;28;20034;-75
2021/04/28 03:02:39;;;;;;;31.27;21.35;;;282.50;1945.60;;;;;;4994476;28;20054;-75
2021/04/28 03:05:21;;;;;;;27.80;20.60;;;282.50;1945.60;;;;;;4994472;28;20061;-75
2021/04/28 03:07:47;;;;;;;26.05;20.65;;;282.50;1945.60;;;;;;4994415;28;20088;-75
2021/04/28 03:10:14;;;;;;;26.20;21.10;;;282.50;1945.60;;;;;;4994322;28;20027;-74
2021/04/28 03:12:40;;;;;;;28.23;21.13;;;282.50;1945.60;;;;;;4994246;28;20535;-74
2021/04/28 03:15:11;;;;;;;25.27;20.05;;;307.20;1971.20;;;;;;4994436;28;20061;-75
2021/04/28 03:17:38;;;;;;;26.95;20.55;;;307.20;1971.20;;;;;;4993782;28;20466;-76
2021/04/28 03:20:06;;;;;;;27.25;19.75;;;307.20;1996.80;;;;;;4976435;28;20416;-75
2021/04/28 03:22:33;;;;;;;25.08;18.35;;;307.20;1971.20;;;;;;4977073;28;20049;-76
2021/04/28 03:24:58;;;;;;;24.75;17.70;;;307.20;1945.60;;;;;;4994195;28;20031;-75
2021/04/28 03:27:24;;;;;;;25.30;19.27;;;282.50;1920.00;;;;;;4994368;28;20037;-76
2021/04/28 03:29:51;;;;;;;21.00;16.27;;;282.50;1920.00;;;;;;4993478;28;20472;-77
2021/04/28 03:32:17;;;;;;;23.27;17.35;;;282.50;1920.00;;;;;;4994636;28;20349;-70
2021/04/28 03:34:43;;;;;;;22.42;17.25;;;282.50;1920.00;;;;;;4994269;28;20019;-73
2021/04/28 03:37:09;;;;;;;21.45;15.95;;;282.50;1920.00;;;;;;4976454;28;20030;-78
2021/04/28 03:39:36;;;;;;;21.58;16.45;;;307.20;1920.00;;;;;;4994475;28;20062;-76
2021/04/28 03:42:03;;;;;;;20.42;16.08;;;282.50;1920.00;;;;;;4994369;28;20026;-76
2021/04/28 03:44:29;;;;;;;20.20;16.02;;;282.50;1894.40;;;;;;4994277;28;20042;-74
2021/04/28 03:46:55;;;;;;;22.88;16.90;;;282.50;1894.40;;;;;;4993865;28;20046;-74
2021/04/28 03:49:21;;;;;;;22.52;15.43;;;282.50;1894.40;;;;;;4993625;28;20600;-77
2021/04/28 03:51:47;;;;;;;20.52;15.27;;;282.50;1920.00;;;;;;4994071;28;20034;-78
2021/04/28 03:54:14;;;;;;;20.45;15.48;;;282.50;1894.40;;;;;;4994241;28;20057;-78
2021/04/28 03:56:41;;;;;;;19.33;15.35;;;282.50;1894.40;;;;;;4976624;28;20126;-79
2021/04/28 03:59:07;;;;;;;21.05;16.20;;;282.50;1894.40;;;;;;4994046;28;20049;-73
2021/04/28 04:01:33;;;;;;;22.35;16.00;;;282.50;1894.40;;;;;;4993916;28;20451;-72
2021/04/28 04:03:59;;;;;;;19.50;15.27;;;282.40;1894.40;;;;;;4993989;28;20054;-73
2021/04/28 04:06:24;;;;;;;23.50;16.00;;;282.50;1894.40;;;;;;4994036;28;20093;-73
2021/04/28 04:08:50;;;;;;;19.48;15.80;;;282.50;1894.40;;;;;;4994083;28;20022;-75
2021/04/28 04:11:16;;;;;;;23.08;17.88;;;282.50;1894.40;;;;;;4997219;28;20026;-77
2021/04/28 04:13:41;;;;;;;25.05;18.33;;;282.50;1894.40;;;;;;4997774;28;20022;-77
2021/04/28 04:16:08;;;;;;;38.15;23.58;;;282.50;1894.40;;;;;;4979529;28;20065;-77
2021/04/28 04:18:33;;;;;;;44.85;26.17;;;282.50;1894.40;;;;;;4997400;28;20461;-78
2021/04/28 04:20:59;;;;;;;52.45;27.65;;;282.50;1894.40;;;;;;4997537;28;20033;-77
2021/04/28 04:23:25;;;;;;;59.40;30.00;;;282.50;1920.00;;;;;;4997719;28;20032;-78
2021/04/28 04:25:50;;;;;;;62.33;29.95;;;282.50;1920.00;;;;;;4997435;28;20070;-77
2021/04/28 04:28:16;;;;;;;50.83;27.67;;;282.50;1920.00;;;;;;4997578;28;20034;-77
2021/04/28 04:30:42;;;;;;;47.72;25.95;;;282.50;1920.00;;;;;;4997730;28;20026;-78
2021/04/28 04:33:10;;;;;;;48.25;25.92;;;307.20;1945.60;;;;;;4997038;28;20026;-77
2021/04/28 04:35:37;;;;;;;49.15;23.55;;;282.50;1920.00;;;;;;4997292;28;20125;-78
2021/04/28 04:38:04;;;;;;;41.38;21.55;;;307.20;1945.60;;;;;;4979075;28;20097;-78
2021/04/28 04:40:29;;;;;;;34.47;19.48;;;307.20;1945.60;;;;;;4979463;28;20041;-73
2021/04/28 04:42:55;;;;;;;33.58;20.25;;;307.20;1945.60;;;;;;4996908;28;20109;-73
2021/04/28 04:45:21;;;;;;;29.15;18.00;;;307.20;1945.60;;;;;;4996818;28;20034;-77
2021/04/28 04:47:47;;;;;;;28.55;16.55;;;307.20;1945.60;;;;;;4996830;28;20515;-77
2021/04/28 04:50:13;;;;;;;35.10;19.85;;;307.20;1945.60;;;;;;4996882;28;20491;-75
2021/04/28 04:52:39;;;;;;;31.13;18.95;;;307.20;1945.60;;;;;;4996913;28;20408;-78
2021/04/28 04:55:05;;;;;;;28.65;18.23;;;307.20;1945.60;;;;;;4997271;28;20129;-79
2021/04/28 04:57:31;;;;;;;29.92;19.80;;;307.30;1945.60;;;;;;4995599;28;20022;-79
2021/04/28 04:59:56;;;;;;;25.25;17.17;;;307.30;1945.60;;;;;;4996764;28;20030;-79
2021/04/28 05:02:22;;;;;;;27.15;17.48;;;307.30;1945.60;;;;;;4996874;28;20451;-78
2021/04/28 05:04:48;;;;;;;26.02;17.42;;;307.30;1945.60;;;;;;4996937;28;20035;-79
2021/04/28 05:07:14;;;;;;;21.90;15.88;;;307.30;1945.60;;;;;;4996731;28;20023;-79
2021/04/28 05:09:39;;;;;;;22.42;16.02;;;307.30;1945.60;;;;;;4996729;28;20081;-78
2021/04/28 05:12:05;;;;;;;24.27;16.42;;;307.30;1945.60;;;;;;4996563;28;20316;-78
2021/04/28 05:14:31;;;;;;;21.15;15.55;;;307.30;1971.20;;;;;;4996583;28;20034;-73
2021/04/28 05:16:57;;;;;;;19.38;14.15;;;307.30;1945.60;;;;;;4996557;28;20027;-74
2021/04/28 05:19:22;;;;;;;20.45;14.60;;;307.30;1945.60;;;;;;4995981;28;20030;-78
2021/04/28 05:21:48;;;;;;;18.50;14.05;;;307.30;1945.60;;;;;;4995398;28;20435;-77
2021/04/28 05:24:14;;;;;;;19.02;14.18;;;307.40;1945.60;;;;;;4996314;28;20057;-79
2021/04/28 05:26:39;;;;;;;21.67;14.70;;;307.40;1945.60;;;;;;4996681;28;20022;-79
2021/04/28 05:29:05;;;;;;;20.60;14.00;;;307.40;1945.60;;;;;;4996594;28;20388;-79
2021/04/28 05:31:31;;;;;;;18.05;13.57;;;307.40;1945.60;;;;;;4996224;28;20495;-76
2021/04/28 05:33:58;;;;;;;17.88;12.60;;;307.40;1945.60;;;;;;4996033;28;20049;-79
2021/04/28 05:36:24;;;;;;;20.08;13.18;;;307.40;1971.20;;;;;;4996102;28;20022;-79
2021/04/28 05:38:50;;;;;;;19.20;13.88;;;307.40;1971.20;;;;;;4996295;28;20072;-79
2021/04/28 05:41:16;;;;;;;18.98;13.90;;;307.40;1971.20;;;;;;4996381;28;20022;-79
2021/04/28 05:43:42;;;;;;;22.23;14.95;;;307.40;1971.20;;;;;;4996100;28;20030;-75
2021/04/28 05:46:26;;;;;;;20.20;14.20;;;307.40;1971.20;;;;;;4996106;28;20396;-79
2021/04/28 05:48:52;;;;;;;23.83;17.02;;;307.40;1996.80;;;;;;4989208;28;20050;-77
2021/04/28 05:51:17;;;;;;;25.25;17.02;;;307.40;1971.20;;;;;;4996175;28;20037;-79
2021/04/28 05:53:43;;;;;;;22.60;16.45;;;307.50;1971.20;;;;;;4995870;28;20022;-79
2021/04/28 05:56:09;;;;;;;25.23;14.90;;;307.50;1996.80;;;;;;4996156;28;20045;-79
2021/04/28 05:58:35;;;;;;;24.83;16.77;;;307.50;1996.80;;;;;;4978686;28;20031;-80
2021/04/28 06:01:01;;;;;;;28.70;17.40;;;307.50;1996.80;;;;;;4995459;28;20038;-77
2021/04/28 06:03:27;;;;;;;28.60;18.20;;;307.50;1996.80;;;;;;4995689;28;20129;-79
2021/04/28 06:05:53;;;;;;;25.83;17.30;;;307.60;1996.80;;;;;;4995671;28;20031;-79
2021/04/28 06:08:19;;;;;;;33.38;18.85;;;307.60;1996.80;;;;;;4994681;28;20081;-77
2021/04/28 06:10:45;;;;;;;33.58;21.42;;;307.60;2022.40;;;;;;4995107;28;20033;-75
2021/04/28 06:13:11;;;;;;;34.53;20.58;;;307.60;2022.40;;;;;;4995287;28;20077;-74
2021/04/28 06:15:37;;;;;;;35.65;21.70;;;307.60;1996.80;;;;;;4995359;28;20468;-74
2021/04/28 06:18:05;;;;;;;31.00;21.48;;;307.70;2022.40;;;;;;4995274;28;20098;-74
2021/04/28 06:20:33;;;;;;;28.92;19.40;;;307.70;2022.40;;;;;;4995096;28;20022;-73
2021/04/28 06:22:59;;;;;;;25.50;19.00;;;307.70;2022.40;;;;;;4994960;28;20033;-73
2021/04/28 06:25:25;;;;;;;27.55;19.50;;;307.70;2022.40;;;;;;4995032;28;20084;-73
2021/04/28 06:27:51;;;;;;;28.73;20.33;;;307.80;2022.40;;;;;;4994306;28;20448;-74
2021/04/28 06:30:17;;;;;;;29.27;20.73;;;307.80;2022.40;;;;;;4995170;28;20034;-74
2021/04/28 06:32:43;;;;;;;31.50;22.70;;;307.90;2022.40;;;;;;4994811;28;20077;-74
2021/04/28 06:35:10;;;;;;;33.15;22.27;;;307.90;2022.40;;;;;;4994921;28;20034;-74
2021/04/28 06:37:37;;;;;;;37.08;23.42;;;307.90;2022.40;;;;;;4994851;28;20033;-74
2021/04/28 06:40:05;;;;;;;36.90;24.35;;;307.90;2022.40;;;;;;4995050;28;20026;-74
2021/04/28 06:42:30;;;;;;;39.72;23.98;;;308.00;2022.40;;;;;;4994809;28;20101;-75
2021/04/28 06:44:57;;;;;;;48.15;24.52;;;308.10;2022.40;;;;;;4994912;28;20121;-76
2021/04/28 06:47:23;;;;;;;47.70;28.23;;;332.80;2048.00;;;;;;4994423;28;20049;-76
2021/04/28 06:49:49;;;;;;;37.00;23.08;;;332.80;2048.00;;;;;;4994747;28;20022;-77
2021/04/28 06:52:15;;;;;;;42.28;24.02;;;332.80;2048.00;;;;;;4977371;28;20034;-80
2021/04/28 06:54:40;;;;;;;28.20;22.20;;;332.90;2048.00;;;;;;4994810;28;20026;-80
2021/04/28 06:57:06;;;;;;;31.42;21.52;;;332.90;2073.60;;;;;;4995414;28;20146;-82
2021/04/28 06:59:32;;;;;;;27.50;19.95;;;333.00;2073.60;;;;;;4995183;28;20068;-83
2021/04/28 07:01:57;;;;;;;31.67;21.52;;;333.00;2048.00;;;;;;4990182;28;20076;-78
2021/04/28 07:04:23;;;;;;;26.10;20.25;;;333.10;2048.00;;;;;;4974348;28;20589;-77
2021/04/28 07:06:49;;;;;;;27.63;21.17;;;333.20;2073.60;;;;;;4975039;28;20027;-74
2021/04/28 07:09:16;;;;;;;26.65;20.10;;;333.30;2048.00;;;;;;4958472;28;20045;-83
2021/04/28 07:11:42;;;;;;;31.60;20.85;;;333.30;2073.60;;;;;;4975590;28;20026;-83
2021/04/28 07:14:08;;;;;;;30.30;21.83;;;333.40;2073.60;;;;;;4975461;28;20492;-84
2021/04/28 07:16:34;;;;;;;27.83;20.80;;;333.50;2048.00;;;;;;4958119;28;20042;-82
2021/04/28 07:19:18;;;;;;;25.98;19.42;;;333.50;2048.00;;;;;;4974754;28;20023;-84
2021/04/28 07:21:43;;;;;;;31.60;21.58;;;333.50;2048.00;;;;;;4977212;28;20031;-84
2021/04/28 07:24:10;;;;;;;32.38;22.88;;;333.60;2048.00;;;;;;4995160;28;20026;-86
2021/04/28 07:26:36;;;;;;;30.17;21.67;;;333.60;2048.00;;;;;;4976846;28;20034;-87
2021/04/28 07:29:02;;;;;;;29.73;21.52;;;333.70;2048.00;;;;;;4977319;28;20022;-85
2021/04/28 07:31:29;;;;;;;28.23;20.63;;;333.70;2048.00;;;;;;4977306;28;20031;-84
2021/04/28 07:33:56;;;;;;;23.65;20.65;;;358.40;2048.00;;;;;;4994892;28;20037;-86
2021/04/28 07:36:21;;;;;;;24.48;20.17;;;358.40;2073.60;;;;;;4994513;28;20486;-85
2021/04/28 07:38:47;;;;;;;27.23;21.13;;;358.50;2048.00;;;;;;4977358;28;20113;-88
2021/04/28 07:41:13;;;;;;;23.38;20.00;;;358.60;2073.60;;;;;;4977248;28;20023;-86
2021/04/28 07:43:39;;;;;;;26.35;21.98;;;358.60;2048.00;;;;;;4994538;28;20027;-84
2021/04/28 07:46:05;;;;;;;26.92;21.63;;;358.60;2022.40;;;;;;4996716;28;20050;-79
2021/04/28 07:48:31;;;;;;;32.75;22.48;;;358.60;2022.40;;;;;;4997670;28;20018;-81
2021/04/28 07:50:57;;;;;;;30.15;22.65;;;358.60;2022.40;;;;;;4999694;28;20049;-82
2021/04/28 07:53:23;;;;;;;32.88;21.98;;;358.60;1996.80;;;;;;4980933;28;20109;-83
2021/04/28 07:55:49;;;;;;;42.83;23.42;;;358.60;1996.80;;;;;;4997989;28;20195;-81
2021/04/28 07:58:16;;;;;;;29.17;20.48;;;358.60;1996.80;;;;;;4998158;28;20447;-80
2021/04/28 08:00:42;;;;;;;27.58;20.35;;;358.60;1971.20;;;;;;4998270;28;20045;-84
2021/04/28 08:03:08;;;;;;;27.52;20.02;;;358.60;1971.20;;;;;;4997441;28;20676;-83
2021/04/28 08:05:34;;;;;;;31.38;22.75;;;358.60;1971.20;;;;;;4997694;28;20045;-83
2021/04/28 08:08:00;;;;;;;28.05;21.38;;;358.60;1996.80;;;;;;4980276;28;20049;-77
2021/04/28 08:10:26;;;;;;;29.10;19.67;;;358.60;1971.20;;;;;;4997132;28;20066;-77
2021/04/28 08:12:52;;;;;;;27.83;17.88;;;358.60;1971.20;;;;;;4997046;28;20026;-77
2021/04/28 08:15:18;;;;;;;22.25;16.45;;;358.60;1971.20;;;;;;4997113;28;20031;-77
2021/04/28 08:17:44;;;;;;;20.67;16.58;;;358.60;1945.60;;;;;;4996605;28;20428;-77
2021/04/28 08:20:11;;;;;;;20.95;16.67;;;358.70;1945.60;;;;;;4997115;28;20022;-77
2021/04/28 08:22:38;;;;;;;29.70;17.85;;;358.70;1945.60;;;;;;4979786;28;20023;-83
2021/04/28 08:25:05;;;;;;;32.17;19.17;;;358.80;1971.20;;;;;;4997355;28;20041;-82
2021/04/28 08:27:31;;;;;;;26.17;18.45;;;358.90;1971.20;;;;;;4998895;28;20023;-82
2021/04/28 08:29:57;;;;;;;24.23;18.05;;;358.90;1971.20;;;;;;4997554;28;20050;-82
2021/04/28 08:32:24;;;;;;;25.00;17.80;;;359.00;1971.20;;;;;;4996858;28;20030;-81
2021/04/28 08:34:50;;;;;;;23.92;17.05;;;359.10;1945.60;;;;;;4997335;28;20085;-82
2021/04/28 08:37:16;;;;;;;22.70;16.77;;;359.10;1945.60;;;;;;4997305;28;20027;-79
2021/04/28 08:39:42;;;;;;;21.80;14.05;;;359.10;1945.60;;;;;;4996841;28;20361;-81
2021/04/28 08:42:08;;;;;;;17.13;12.60;;;359.20;1945.60;;;;;;4979328;28;20044;-79
2021/04/28 08:44:35;;;;;;;17.35;11.27;;;359.20;1920.00;;;;;;4996896;28;20041;-80
2021/04/28 08:47:01;;;;;;;15.80;11.60;;;359.30;1920.00;;;;;;4996417;28;20039;-79
2021/04/28 08:49:27;;;;;;;17.20;11.20;;;359.30;1894.40;;;;;;4996651;28;20033;-79
2021/04/28 08:51:54;;;;;;;14.82;12.43;;;384.00;1894.40;;;;;;4996845;28;20019;-81
2021/04/28 08:54:19;;;;;;;16.25;13.63;;;384.00;1894.40;;;;;;4996510;28;20027;-79
2021/04/28 08:56:53;;;;;;;15.70;13.68;;;384.10;1894.40;;;;;;4995015;28;20031;-78
2021/04/28 08:59:19;;;;;;;24.45;15.52;;;384.10;1894.40;;;;;;4996537;28;20035;-75
2021/04/28 09:01:47;;;;;;;20.42;13.63;;;384.30;1920.00;;;;;;4996092;28;20027;-77
2021/04/28 09:04:23;;;;;;;31.83;14.52;;;384.40;1894.40;;;;;;4996534;28;20353;-78
2021/04/28 09:06:51;;;;;;;20.38;12.75;;;384.50;1868.80;;;;;;4996795;28;20030;-76
2021/04/28 09:09:19;;;;;;;20.45;11.93;;;384.50;1817.60;;;;;;4996089;28;20026;-83
2021/04/28 09:11:54;;;;;;;18.85;10.25;;;384.50;1817.60;;;;;;4996046;28;20042;-76
2021/04/28 09:14:24;;;;;;;14.75;9.40;;;384.60;1817.60;;;;;;4996007;28;20472;-76
2021/04/28 09:17:01;;;;;;;21.65;10.63;;;384.60;1817.60;;;;;;4995515;28;20550;-77
2021/04/28 09:19:38;;;;;;;13.65;9.25;;;384.70;1817.60;;;;;;4962487;28;20506;-76
2021/04/28 09:22:10;;;;;;;16.42;9.05;;;384.80;1817.60;;;;;;4996003;28;20129;-76
2021/04/28 09:24:54;;;;;;;17.00;9.57;;;384.80;1792.00;;;;;;4995525;28;20113;-76
2021/04/28 09:27:37;;;;;;;11.70;8.80;;;384.80;1766.40;;;;;;4978394;28;20026;-76
2021/04/28 09:30:07;;;;;;;29.70;16.65;;;384.80;1766.40;;;;;;4995519;28;20029;-77
2021/04/28 09:32:38;;;;;;;32.80;18.35;;;384.80;1817.60;;;;;;4995639;28;20026;-75
2021/04/28 09:35:20;;;;;;;15.27;9.93;;;384.90;1792.00;;;;;;4995538;28;20404;-73
2021/04/28 09:37:53;;;;;;;57.70;19.67;;;384.90;1766.40;;;;;;4977346;28;20096;-73
2021/04/28 09:40:20;;;;;;;30.23;13.13;;;409.60;1817.60;;;;;;4995467;28;20027;-74
2021/04/28 09:42:53;;;;;;;22.85;10.88;;;409.60;1792.00;;;;;;4994233;28;20505;-73
2021/04/28 09:45:40;;;;;;;16.70;9.70;;;409.60;1766.40;;;;;;4994202;28;20057;-73
2021/04/28 09:48:10;;;;;;;11.90;9.50;;;409.70;1766.40;;;;;;4952253;28;20042;-73
2021/04/28 09:50:36;;;;;;;13.15;9.85;;;409.70;1766.40;;;;;;4974386;28;20026;-73
2021/04/28 09:53:02;;;;;;;13.93;10.30;;;409.70;1766.40;;;;;;4974368;28;20030;-74
2021/04/28 09:55:27;;;;;;;17.90;10.82;;;409.80;1792.00;;;;;;4974619;28;20069;-74
2021/04/28 09:57:54;;;;;;;14.32;10.18;;;409.80;1792.00;;;;;;4957228;28;20472;-73
2021/04/28 10:00:27;;;;;;;15.30;11.02;;;409.80;1766.40;;;;;;4974170;28;20401;-73
2021/04/28 10:02:58;;;;;;;14.18;11.57;;;409.90;1766.40;;;;;;4974410;28;20023;-73
2021/04/28 10:05:28;;;;;;;12.77;10.02;;;410.00;1766.40;;;;;;4971796;28;20543;-73
2021/04/28 10:08:22;;;;;;;17.02;9.77;;;410.00;1766.40;;;;;;4973601;28;20031;-72
2021/04/28 10:10:52;;;;;;;52.80;26.45;;;410.10;1740.80;;;;;;4970318;28;20023;-76
2021/04/28 10:13:18;;;;;;;40.55;20.52;;;410.30;1843.20;;;;;;4957080;28;20046;-74
2021/04/28 10:15:45;;;;;;;24.45;14.13;;;410.40;1817.60;;;;;;4955368;28;20023;-73
2021/04/28 10:18:13;;;;;;;23.90;14.57;;;410.40;1766.40;;;;;;4973247;28;20034;-74
2021/04/28 10:20:41;;;;;;;17.33;10.77;;;410.40;1740.80;;;;;;4975965;28;20027;-71
2021/04/28 10:23:13;;;;;;;17.73;10.32;;;410.40;1740.80;;;;;;4969957;28;20074;-77
2021/04/28 10:25:40;;;;;;;13.18;10.07;;;410.50;1715.20;;;;;;4973963;28;20042;-72
2021/04/28 10:28:09;;;;;;;16.85;10.55;;;410.50;1715.20;;;;;;4969428;28;20537;-74
2021/04/28 10:30:40;;;;;;;11.50;9.70;;;410.50;1715.20;;;;;;4972675;28;20454;-71
2021/04/28 10:33:14;;;;;;;12.77;9.80;;;410.50;1715.20;;;;;;4963890;28;20023;-74
2021/04/28 10:35:40;;;;;;;17.42;10.02;;;435.20;1715.20;;;;;;4973986;28;20094;-71
2021/04/28 10:38:06;;;;;;;13.43;10.30;;;435.30;1715.20;;;;;;4973705;28;20031;-71
2021/04/28 10:40:36;;;;;;;14.57;10.82;;;435.30;1689.60;;;;;;4973478;28;20029;-71
2021/04/28 10:43:09;;;;;;;17.30;11.98;;;435.30;1689.60;;;;;;4950469;29;20087;-71
2021/04/28 10:45:39;;;;;;;14.77;11.05;;;435.40;1664.00;;;;;;4956364;28;20389;-71
2021/04/28 10:48:21;;;;;;;14.82;10.35;;;435.40;1664.00;;;;;;4990279;28;20366;-69
2021/04/28 10:50:48;;;;;;;18.05;11.05;;;435.40;1664.00;;;;;;4988034;28;20034;-72
2021/04/28 10:53:23;;;;;;;16.42;12.50;;;435.40;1664.00;;;;;;4993113;28;20106;-72
2021/04/28 10:56:10;;;;;;;17.63;12.15;;;435.60;1638.40;;;;;;4971415;28;20026;-73
2021/04/28 10:58:38;;;;;;;14.65;11.65;;;435.60;1638.40;;;;;;4990706;28;20372;-73
2021/04/28 11:01:04;;;;;;;19.25;11.63;;;435.60;1638.40;;;;;;4992610;28;20105;-73
2021/04/28 11:03:34;;;;;;;23.38;12.57;;;435.60;1612.80;;;;;;4992476;28;20097;-75
2021/04/28 11:06:22;;;;;;;18.45;11.93;;;435.70;1638.40;;;;;;4975242;28;20038;-74
2021/04/28 11:08:56;;;;;;;19.33;10.13;;;435.70;1638.40;;;;;;4988186;28;20031;-72
2021/04/28 11:11:31;;;;;;;21.70;10.73;;;435.90;1664.00;;;;;;4975163;28;20468;-73
2021/04/28 11:14:15;;;;;;;19.30;10.68;;;435.90;1664.00;;;;;;4992364;28;20030;-74
2021/04/28 11:16:46;;;;;;;17.55;10.68;;;435.90;1638.40;;;;;;4991618;28;20465;-72
2021/04/28 11:19:21;;;;;;;13.40;10.05;;;435.90;1664.00;;;;;;4991863;28;20126;-73
2021/04/28 11:22:19;;;;;;;13.60;8.68;;;436.00;1638.40;;;;;;4988817;28;20018;-73
2021/04/28 11:24:57;;;;;;;22.42;10.00;;;436.00;1612.80;;;;;;4895771;29;20048;-73
2021/04/28 11:27:56;;;;;;;18.73;10.40;;;436.00;1612.80;;;;;;4896173;29;20031;-73
2021/04/28 11:30:38;;;;;;;18.02;9.80;;;460.80;1664.00;;;;;;4895781;29;20099;-73
2021/04/28 11:33:23;;;;;;;17.05;9.05;;;460.80;1638.40;;;;;;4895755;29;20515;-73
2021/04/28 11:35:55;;;;;;;20.25;10.25;;;460.90;1612.80;;;;;;4895787;29;20087;-71
2021/04/28 11:38:31;;;;;;;24.25;10.65;;;460.90;1638.40;;;;;;4895882;29;20063;-73
2021/04/28 11:41:10;;;;;;;15.60;10.90;;;461.00;1612.80;;;;;;4895870;29;20064;-76
2021/04/28 11:43:37;;;;;;;21.55;11.30;;;461.00;1612.80;;;;;;4895448;29;20036;-77
2021/04/28 11:46:17;;;;;;;19.90;11.20;;;461.10;1612.80;;;;;;4895584;29;20052;-71
2021/04/28 11:48:45;;;;;;;15.55;9.88;;;461.20;1587.20;;;;;;4895875;29;20041;-83
2021/04/28 11:51:17;;;;;;;13.88;9.35;;;461.20;1587.20;;;;;;4895841;29;20048;-75
2021/04/28 11:53:49;;;;;;;17.85;10.52;;;461.20;1561.60;;;;;;4896136;28;20036;-77
2021/04/28 11:56:31;;;;;;;17.85;10.65;;;461.20;1561.60;;;;;;4895954;29;20035;-78
2021/04/28 11:58:59;;;;;;;15.75;10.40;;;461.30;1561.60;;;;;;4895611;29;20111;-77
2021/04/28 12:01:31;;;;;;;16.73;9.55;;;461.30;1561.60;;;;;;4945709;28;20043;-76
2021/04/28 12:03:59;;;;;;;26.77;10.85;;;461.40;1536.00;;;;;;4974090;28;20027;-75